Benson, AZ

3:50 AM MST on October 22, 2014 (GMT -0700)
KAZVAIL19 | Change Station
CLOSE
Current Station
Personal Weather Station
Location: Vail, AZ
Elevation: 3665 ft
Nearby Weather Stations

Elev 3665 ft 32.01 °N, 110.57 °W | Updated 48 seconds ago

Clear
Clear
57.4 °F
Feels Like 57.4 °F
N
10.8
Wind Variable Wind from East
Gusts 10.8 mph

Today
High -- | Low -- °F
--% Chance of Precip.
Yesterday
High -- | Low -- °F
Precip. -- in
6:29 AM 5:40 PM
Waning Crescent, 2% visible
Pressure 29.86 in
Visibility 10.0 miles
Clouds Clear
Dew Point 49 °F
Humidity 73%
Rainfall 0.00 in
Snow Depth Not available.
UV 0 out of 12
Pollen 5.50 out of 12
Air Quality Not available.
Flu Activity No Activity
METAR KALK 220956Z AUTO 00000KT 10SM CLR 11/06 A3008 RMK AO2 SLP109 T01060061 TSNO

More Conditions Fewer Conditions

Pressure 29.86 in
Visibility 10.0 miles
Clouds Clear
Dew Point 49 °F
Humidity 73%
Rainfall 0.00 in
Snow Depth Not available.
UV 0 out of 12
Pollen 5.50 out of 12
Air Quality Not available.
Flu Activity No Activity
METAR KALK 220956Z AUTO 00000KT 10SM CLR 11/06 A3008 RMK AO2 SLP109 T01060061 TSNO

More Conditions Fewer Conditions

10-Day Weather Forecast

Almanac

Astronomy

Oct. 22, 2014 Rise Set
Actual Time 6:29 AM MST 5:40 PM MST
Civil Twilight 6:05 AM MST 6:05 PM MST
Nautical Twilight 5:36 AM MST 6:34 PM MST
Astronomical Twilight 5:08 AM MST 7:02 PM MST
Moon 5:18 AM MST 5:06 PM MST
Length of Visible Light 12h 00m
Length of Day
11h 11m
Tomorrow will be 1m 49s shorter.
Waning Crescent, 2% of the Moon is Illuminated
Today
Waning Crescent
Oct 23
New
Oct 30
First Quarter
Nov 6
Full
Nov 14
Last Quarter

Today's Extremes

State Highs State Lows

Community

WunderPhotos

Upload Photos

1,763,902 photos uploaded!

Nearby

Snow Depth

Station Depth Elevation
Hannagan Meadows 0 in 9020 ft
Wildcat 0 in 7850 ft
Workman Creek 1 in 6900 ft
Beaver Head 1 in 7990 ft
Maverick Fork 1 in 9200 ft

Earthquake Activity

City Distance Mag. Time & Date
No recent earthquake activity has been reported nearby.
Minimum magnitude displayed is 2.5.

Coastal Water Temperatures

Place Temperature
No Stations Reporting

Nearby Weather Stations